createdAt,value
2023-05-23T00:02:20.743Z,100871.97
2023-05-23T00:04:49.332Z,100861.56
2023-05-23T00:07:17.314Z,100866.94
2023-05-23T00:09:45.137Z,100857.06
2023-05-23T00:12:14.331Z,100865.75
2023-05-23T00:14:42.135Z,100852.56
2023-05-23T00:17:10.823Z,100861.56
2023-05-23T00:19:38.831Z,100852.44
2023-05-23T00:22:06.638Z,100869.97
2023-05-23T00:24:34.490Z,100870.78
2023-05-23T00:27:02.364Z,100871.63
2023-05-23T00:29:31.510Z,100862.94
2023-05-23T00:31:59.389Z,100872.13
2023-05-23T00:34:27.201Z,100863.28
2023-05-23T00:36:55.030Z,100866.94
2023-05-23T00:39:23.713Z,100863.13
2023-05-23T00:41:53.209Z,100862.63
2023-05-23T00:44:22.067Z,100869.66
2023-05-23T00:46:54.762Z,100878.47
2023-05-23T00:49:23.167Z,100875.63
2023-05-23T00:51:52.305Z,100867.28
2023-05-23T00:54:25.088Z,100875.31
2023-05-23T00:56:52.909Z,100875.31
2023-05-23T00:59:21.274Z,100878.97
2023-05-23T01:01:52.983Z,100846.09
2023-05-23T01:04:26.319Z,100886.66
2023-05-23T01:06:55.258Z,100889.31
2023-05-23T01:12:21.815Z,100893.66
2023-05-23T01:14:57.810Z,100858.47
2023-05-23T01:17:30.201Z,100874.66
2023-05-23T01:20:05.886Z,100890.34
2023-05-23T01:22:55.949Z,100891.16
2023-05-23T01:25:33.132Z,100892.66
2023-05-23T01:28:04.552Z,100889.31
2023-05-23T01:30:36.195Z,100880.97
2023-05-23T01:33:05.868Z,100888.16
2023-05-23T01:35:34.608Z,100886.00
2023-05-23T01:38:02.545Z,100898.97
2023-05-23T01:40:30.900Z,100896.00
2023-05-23T01:42:59.306Z,100908.38
2023-05-23T01:45:31.169Z,100892.00
2023-05-23T01:48:00.247Z,100908.38
2023-05-23T01:50:29.378Z,100908.38
2023-05-23T01:52:58.020Z,100914.56
2023-05-23T01:55:26.621Z,100899.38
2023-05-23T01:57:57.066Z,100921.72
2023-05-23T02:00:25.492Z,100911.38
2023-05-23T02:02:54.827Z,100917.38
2023-05-23T02:05:22.932Z,100916.22
2023-05-23T02:07:50.700Z,100920.56
2023-05-23T02:10:18.873Z,100921.88
2023-05-23T02:12:46.736Z,100919.72
2023-05-23T02:15:14.656Z,100919.38
2023-05-23T02:17:43.054Z,100915.72
2023-05-23T02:20:13.148Z,100917.38
2023-05-23T02:22:41.137Z,100918.22
2023-05-23T02:25:10.493Z,100926.91
2023-05-23T02:27:38.371Z,100916.88
2023-05-23T02:30:07.730Z,100920.56
2023-05-23T02:32:35.822Z,100919.88
2023-05-23T02:35:03.722Z,100907.34
2023-05-23T02:37:32.895Z,100926.22
2023-05-23T02:40:01.417Z,100928.56
2023-05-23T02:42:29.311Z,100931.41
2023-05-23T02:44:57.145Z,100931.22
2023-05-23T02:47:25.055Z,100936.06
2023-05-23T02:49:52.936Z,100934.75
2023-05-23T02:52:20.975Z,100933.75
2023-05-23T02:54:50.121Z,100934.75
2023-05-23T02:57:18.066Z,100936.75
2023-05-23T02:59:46.256Z,100932.25
2023-05-23T03:02:14.247Z,100926.72
2023-05-23T03:04:42.049Z,100920.41
2023-05-23T03:07:17.261Z,100932.72
2023-05-23T03:09:56.821Z,100925.56
2023-05-23T03:12:24.614Z,100930.56
2023-05-23T03:14:52.475Z,100937.06
2023-05-23T03:17:20.474Z,100938.75
2023-05-23T03:19:48.258Z,100932.06
2023-05-23T03:22:16.044Z,100938.22
2023-05-23T03:24:44.059Z,100939.38
2023-05-23T03:27:13.994Z,100938.56
2023-05-23T03:29:41.905Z,100948.38
2023-05-23T03:32:09.915Z,100953.72
2023-05-23T03:34:38.643Z,100949.38
2023-05-23T03:37:06.605Z,100952.03
2023-05-23T03:39:34.428Z,100951.03
2023-05-23T03:42:02.179Z,100953.38
2023-05-23T03:44:31.276Z,100951.38
2023-05-23T03:46:59.578Z,100947.72
2023-05-23T03:49:27.380Z,100948.34
2023-05-23T03:51:55.147Z,100939.19
2023-05-23T03:54:23.004Z,100948.34
2023-05-23T03:56:50.744Z,100944.00
2023-05-23T03:59:19.456Z,100951.84
2023-05-23T04:01:48.988Z,100950.78
2023-05-23T04:04:18.233Z,100929.13
2023-05-23T04:06:46.049Z,100954.69
2023-05-23T04:09:14.489Z,100954.69
2023-05-23T04:11:46.281Z,100958.47
2023-05-23T04:14:14.628Z,100957.03
2023-05-23T04:16:44.750Z,100963.53
2023-05-23T04:19:14.795Z,100939.75
2023-05-23T04:21:42.625Z,100968.69
2023-05-23T04:24:13.700Z,100965.97
2023-05-23T04:26:42.823Z,100979.69
2023-05-23T04:29:13.873Z,100985.88
2023-05-23T04:31:45.835Z,100986.53
2023-05-23T04:34:17.270Z,100991.72
2023-05-23T04:36:45.560Z,100985.31
2023-05-23T04:39:14.114Z,100987.97
2023-05-23T04:41:51.350Z,100987.31
2023-05-23T04:44:46.208Z,100987.00
2023-05-23T04:47:19.702Z,100985.72
2023-05-23T04:50:11.560Z,100987.69
2023-05-23T04:52:39.507Z,100997.06
2023-05-23T04:55:08.681Z,100996.97
2023-05-23T04:57:37.275Z,100993.31
2023-05-23T05:00:10.564Z,100992.31
2023-05-23T05:02:40.174Z,101001.97
2023-05-23T05:05:10.344Z,100995.47
2023-05-23T05:07:43.094Z,100984.56
2023-05-23T05:10:16.967Z,100978.91
2023-05-23T05:12:46.846Z,100980.25
2023-05-23T05:15:15.236Z,100982.09
2023-05-23T05:17:49.597Z,100999.44
2023-05-23T05:20:21.892Z,100987.25
2023-05-23T05:22:57.574Z,101009.47
2023-05-23T05:25:27.400Z,101010.31
2023-05-23T05:27:55.214Z,101011.31
2023-05-23T05:30:24.763Z,101000.09
2023-05-23T05:32:58.570Z,101017.66
2023-05-23T05:35:27.975Z,101026.69
2023-05-23T05:37:55.876Z,101018.31
2023-05-23T05:40:23.720Z,101022.81
2023-05-23T05:42:54.725Z,101021.13
2023-05-23T05:45:24.005Z,101028.44
2023-05-23T05:47:51.878Z,101020.09
2023-05-23T05:50:21.598Z,101034.94
2023-05-23T05:52:51.140Z,101037.25
2023-05-23T05:55:18.956Z,101027.00
2023-05-23T05:57:51.832Z,101039.88
2023-05-23T06:00:20.269Z,101033.09
2023-05-23T06:02:48.399Z,101035.91
2023-05-23T06:05:21.702Z,101044.28
2023-05-23T06:07:51.276Z,101032.09
2023-05-23T06:10:19.170Z,100999.31
2023-05-23T06:12:47.037Z,101041.41
2023-05-23T06:15:16.056Z,101040.28
2023-05-23T06:17:44.812Z,101039.44
2023-05-23T06:20:16.186Z,101037.28
2023-05-23T06:22:46.376Z,101043.78
2023-05-23T06:25:18.319Z,101020.22
2023-05-23T06:27:50.022Z,101047.97
2023-05-23T06:30:18.157Z,101027.53
2023-05-23T06:32:46.581Z,101046.59
2023-05-23T06:35:15.024Z,101046.56
2023-05-23T06:37:45.601Z,101047.28
2023-05-23T06:40:17.946Z,101046.25
2023-05-23T06:42:46.005Z,101049.59
2023-05-23T06:45:25.372Z,101053.28
2023-05-23T06:47:53.417Z,101063.28
2023-05-23T06:50:21.313Z,101068.84
2023-05-23T06:52:54.087Z,101059.84
2023-05-23T06:55:38.259Z,101056.34
2023-05-23T06:58:08.117Z,101066.75
2023-05-23T07:00:40.539Z,101067.44
2023-05-23T07:03:16.670Z,101075.78
2023-05-23T07:05:45.370Z,101074.44
2023-05-23T07:08:13.415Z,101081.44
2023-05-23T07:10:56.495Z,101067.59
2023-05-23T07:13:31.976Z,101080.94
2023-05-23T07:16:00.530Z,101091.63
2023-05-23T07:18:29.423Z,101096.94
2023-05-23T07:20:58.510Z,101103.47
2023-05-23T07:23:26.699Z,101095.94
2023-05-23T07:26:02.636Z,101101.56
2023-05-23T07:28:53.270Z,101107.28
2023-05-23T07:31:21.418Z,101105.47
2023-05-23T07:33:50.590Z,101110.00
2023-05-23T07:36:29.545Z,101114.03
2023-05-23T07:38:57.451Z,101111.34
2023-05-23T07:41:34.402Z,101071.50
2023-05-23T07:44:02.533Z,101077.41
2023-05-23T07:46:30.674Z,101116.00
2023-05-23T07:48:58.571Z,101114.72
2023-05-23T07:51:26.860Z,101108.53
2023-05-23T07:53:54.692Z,101121.22
2023-05-23T07:56:24.380Z,101111.72
2023-05-23T07:58:53.619Z,101120.22
2023-05-23T08:01:22.313Z,101115.69
2023-05-23T08:04:08.765Z,101120.47
2023-05-23T08:06:52.151Z,101131.84
2023-05-23T08:09:38.394Z,101125.00
2023-05-23T08:12:08.545Z,101121.66
2023-05-23T08:14:49.726Z,101124.91
2023-05-23T08:17:27.108Z,101133.84
2023-05-23T08:19:55.526Z,101132.34
2023-05-23T08:22:24.086Z,101142.16
2023-05-23T08:24:52.012Z,101147.34
2023-05-23T08:27:19.954Z,101143.31
2023-05-23T08:29:53.170Z,101101.84
2023-05-23T08:32:21.461Z,101145.00
2023-05-23T08:34:50.160Z,101154.50
2023-05-23T08:37:17.936Z,101157.47
2023-05-23T08:39:45.850Z,101157.75
2023-05-23T08:42:40.331Z,101159.13
2023-05-23T08:45:12.407Z,101161.13
2023-05-23T08:47:43.416Z,101161.41
2023-05-23T08:50:14.468Z,101150.72
2023-05-23T08:52:46.053Z,101168.13
2023-05-23T08:55:14.446Z,101173.75
2023-05-23T08:57:43.959Z,101172.63
2023-05-23T09:00:34.948Z,101177.13
2023-05-23T09:03:03.382Z,101183.19
2023-05-23T09:05:44.775Z,101183.72
2023-05-23T09:08:13.146Z,101189.28
2023-05-23T09:10:41.805Z,101193.09
2023-05-23T09:13:11.422Z,101193.38
2023-05-23T09:15:58.001Z,101199.19
2023-05-23T09:18:26.651Z,101197.91
2023-05-23T09:20:54.815Z,101203.34
2023-05-23T09:23:22.884Z,101215.88
2023-05-23T09:25:50.797Z,101195.88
2023-05-23T09:28:18.720Z,101202.22
2023-05-23T09:30:48.074Z,101204.22
2023-05-23T09:33:17.093Z,101193.41
2023-05-23T09:35:46.788Z,101217.53
2023-05-23T09:38:14.617Z,101223.47
2023-05-23T09:40:46.856Z,101228.09
2023-05-23T09:43:18.471Z,101230.50
2023-05-23T09:45:55.492Z,101225.69
2023-05-23T09:48:30.788Z,101226.84
2023-05-23T09:50:58.804Z,101228.53
2023-05-23T09:53:26.721Z,101227.53
2023-05-23T09:55:57.007Z,101217.84
2023-05-23T09:58:25.230Z,101197.41
2023-05-23T10:00:56.696Z,101229.56
2023-05-23T10:03:32.336Z,101231.19
2023-05-23T10:06:02.822Z,101235.84
2023-05-23T10:08:35.318Z,101231.75
2023-05-23T10:12:16.614Z,101238.72
2023-05-23T10:14:50.396Z,101234.44
2023-05-23T10:17:22.797Z,101234.53
2023-05-23T10:19:57.945Z,101235.81
2023-05-23T10:22:26.559Z,101217.53
2023-05-23T10:24:54.834Z,101234.63
2023-05-23T10:27:22.969Z,101238.50
2023-05-23T10:29:51.078Z,101248.19
2023-05-23T10:32:20.808Z,101247.00
2023-05-23T10:34:58.700Z,101240.25
2023-05-23T10:37:32.788Z,101262.50
2023-05-23T10:40:06.846Z,101263.03
2023-05-23T10:42:43.969Z,101262.03
2023-05-23T10:45:19.567Z,101277.06
2023-05-23T10:47:50.376Z,101258.53
2023-05-23T10:50:33.010Z,101258.59
2023-05-23T10:53:02.052Z,101289.88
2023-05-23T10:55:33.640Z,101286.50
2023-05-23T10:58:12.823Z,101290.19
2023-05-23T11:00:41.010Z,101291.00
2023-05-23T11:03:11.567Z,101297.50
2023-05-23T11:05:49.191Z,101280.56
2023-05-23T11:08:17.930Z,101293.63
2023-05-23T11:10:56.184Z,101303.19
2023-05-23T11:13:24.729Z,101300.25
2023-05-23T11:15:52.836Z,101299.88
2023-05-23T11:18:25.016Z,101299.69
2023-05-23T11:20:56.481Z,101304.66
2023-05-23T11:23:25.364Z,101310.59
2023-05-23T11:25:55.384Z,101317.97
2023-05-23T11:28:24.083Z,101284.63
2023-05-23T11:30:52.551Z,101317.84
2023-05-23T11:33:21.093Z,101329.31
2023-05-23T11:35:52.862Z,101309.00
2023-05-23T11:38:21.203Z,101311.94
2023-05-23T11:40:49.646Z,101311.84
2023-05-23T11:43:19.699Z,101316.16
2023-05-23T11:45:47.759Z,101308.38
2023-05-23T11:48:17.849Z,101311.81
2023-05-23T11:50:47.921Z,101302.81
2023-05-23T11:53:20.612Z,101310.72
2023-05-23T11:55:53.243Z,101308.47
2023-05-23T11:58:22.686Z,101308.09
2023-05-23T12:00:51.405Z,101311.38
2023-05-23T12:03:20.810Z,101308.47
2023-05-23T12:05:48.762Z,101307.28
2023-05-23T12:08:17.949Z,101301.78
2023-05-23T12:10:54.086Z,101302.13
2023-05-23T12:13:25.647Z,101312.00
2023-05-23T12:15:56.132Z,101306.28
2023-05-23T12:18:24.689Z,101305.44
2023-05-23T12:20:53.289Z,101299.53
2023-05-23T12:23:22.960Z,101304.81
2023-05-23T12:25:54.633Z,101302.41
2023-05-23T12:28:23.653Z,101312.38
2023-05-23T12:30:51.364Z,101318.66
2023-05-23T12:33:21.511Z,101317.81
2023-05-23T12:35:49.377Z,101318.47
2023-05-23T12:38:17.959Z,101311.34
2023-05-23T12:40:47.218Z,101312.44
2023-05-23T12:43:17.363Z,101319.16
2023-05-23T12:45:45.263Z,101307.91
2023-05-23T12:48:13.201Z,101314.97
2023-05-23T12:50:41.341Z,101270.06
2023-05-23T12:53:09.206Z,101310.50
2023-05-23T12:55:37.000Z,101309.63
2023-05-23T12:58:06.197Z,101319.78
2023-05-23T13:00:33.927Z,101309.72
2023-05-23T13:03:01.967Z,101314.44
2023-05-23T13:05:30.048Z,101298.03
2023-05-23T13:07:59.529Z,101310.53
2023-05-23T13:10:28.548Z,101318.94
2023-05-23T13:12:57.982Z,101298.25
2023-05-23T13:15:27.179Z,101321.41
2023-05-23T13:17:57.773Z,101326.13
2023-05-23T13:20:29.962Z,101317.19
2023-05-23T13:22:58.126Z,101323.50
2023-05-23T13:25:26.312Z,101326.00
2023-05-23T13:27:54.809Z,101331.88
2023-05-23T13:30:25.226Z,101325.88
2023-05-23T13:32:54.711Z,101335.09
2023-05-23T13:35:22.723Z,101329.88
2023-05-23T13:37:50.589Z,101332.06
2023-05-23T13:40:20.272Z,101321.03
2023-05-23T13:42:49.192Z,101334.56
2023-05-23T13:45:17.698Z,101329.06
2023-05-23T13:47:45.563Z,101324.50
2023-05-23T13:50:14.726Z,101321.47
2023-05-23T13:52:45.697Z,101295.19
2023-05-23T13:55:15.285Z,101323.13
2023-05-23T13:57:43.044Z,101324.03
2023-05-23T14:00:12.416Z,101328.53
2023-05-23T14:02:40.317Z,101309.81
2023-05-23T14:05:09.269Z,101312.84
2023-05-23T14:07:38.601Z,101304.44
2023-05-23T14:10:09.193Z,101327.22
2023-05-23T14:12:37.848Z,101313.59
2023-05-23T14:15:06.240Z,101313.63
2023-05-23T14:17:34.515Z,101285.72
2023-05-23T14:20:02.436Z,101324.38
2023-05-23T14:22:30.269Z,101320.53
2023-05-23T14:25:00.147Z,101325.03
2023-05-23T14:27:28.060Z,101324.38
2023-05-23T14:29:55.846Z,101320.38
2023-05-23T14:32:23.619Z,101319.69
2023-05-23T14:34:51.652Z,101300.78
2023-05-23T14:37:20.725Z,101316.69
2023-05-23T14:39:48.687Z,101315.16
2023-05-23T14:42:17.907Z,101320.03
2023-05-23T14:44:45.686Z,101319.34
2023-05-23T14:47:13.519Z,101306.06
2023-05-23T14:49:41.480Z,101317.41
2023-05-23T14:52:09.412Z,101319.16
2023-05-23T14:54:37.346Z,101318.19
2023-05-23T14:57:05.815Z,101327.22
2023-05-23T14:59:34.987Z,101307.81
2023-05-23T15:02:03.891Z,101318.50
2023-05-23T15:04:31.936Z,101314.50
2023-05-23T15:07:01.237Z,101311.47
2023-05-23T15:09:29.161Z,101307.28
2023-05-23T15:11:57.089Z,101309.16
2023-05-23T15:14:29.336Z,101305.09
2023-05-23T15:16:59.173Z,101301.03
2023-05-23T15:19:27.006Z,101303.16
2023-05-23T15:21:54.825Z,101295.97
2023-05-23T15:24:22.550Z,101303.84
2023-05-23T15:26:50.324Z,101305.66
2023-05-23T15:29:18.714Z,101301.88
2023-05-23T15:31:46.660Z,101299.34
2023-05-23T15:34:16.087Z,101293.00
2023-05-23T15:36:43.912Z,101300.53
2023-05-23T15:39:12.470Z,101300.25
2023-05-23T15:41:40.362Z,101297.59
2023-05-23T15:44:08.333Z,101288.06
2023-05-23T15:46:36.991Z,101295.75
2023-05-23T15:49:17.072Z,101286.38
2023-05-23T15:51:55.045Z,101298.47
2023-05-23T15:54:23.140Z,101279.69
2023-05-23T15:56:51.022Z,101285.34
2023-05-23T15:59:18.863Z,101290.34
2023-05-23T16:01:46.706Z,101295.19
2023-05-23T16:04:14.788Z,101288.84
2023-05-23T16:06:42.622Z,101286.16
2023-05-23T16:09:12.139Z,101289.66
2023-05-23T16:11:40.075Z,101287.94
2023-05-23T16:14:08.352Z,101282.28
2023-05-23T16:16:36.413Z,101291.13
2023-05-23T16:19:04.916Z,101292.81
2023-05-23T16:21:33.246Z,101292.28
2023-05-23T16:24:01.177Z,101299.97
2023-05-23T16:26:31.395Z,101286.94
2023-05-23T16:28:59.364Z,101285.94
2023-05-23T16:31:28.434Z,101270.69
2023-05-23T16:33:56.629Z,101287.78
2023-05-23T16:36:24.431Z,101281.94
2023-05-23T16:38:54.101Z,101279.28
2023-05-23T16:41:23.115Z,101292.06
2023-05-23T16:43:52.279Z,101290.03
2023-05-23T16:46:22.309Z,101280.50
2023-05-23T16:48:50.358Z,101265.78
2023-05-23T16:51:18.108Z,101279.53
2023-05-23T16:53:45.893Z,101290.16
2023-05-23T16:56:13.712Z,101287.03
2023-05-23T16:58:41.798Z,101289.09
2023-05-23T17:01:11.156Z,101295.06
2023-05-23T17:03:41.247Z,101304.78
2023-05-23T17:06:09.312Z,101303.78
2023-05-23T17:08:37.278Z,101302.63
2023-05-23T17:11:06.572Z,101300.53
2023-05-23T17:13:34.579Z,101308.22
2023-05-23T17:16:02.578Z,101299.66
2023-05-23T17:18:31.975Z,101301.00
2023-05-23T17:20:59.839Z,101301.97
2023-05-23T17:23:27.941Z,101313.50
2023-05-23T17:25:55.864Z,101315.66
2023-05-23T17:28:23.756Z,101315.03
2023-05-23T17:30:53.223Z,101307.34
2023-05-23T17:33:21.309Z,101290.97
2023-05-23T17:35:50.653Z,101313.41
2023-05-23T17:38:18.417Z,101310.69
2023-05-23T17:40:46.363Z,101316.88
2023-05-23T17:43:14.315Z,101314.34
2023-05-23T17:45:42.457Z,101295.25
2023-05-23T17:48:11.608Z,101321.84
2023-05-23T17:50:39.601Z,101317.97
2023-05-23T17:53:08.989Z,101315.97
2023-05-23T17:55:36.861Z,101315.44
2023-05-23T17:58:04.939Z,101313.22
2023-05-23T18:00:32.803Z,101316.00
2023-05-23T18:03:01.512Z,101310.28
2023-05-23T18:05:29.476Z,101319.91
2023-05-23T18:07:57.588Z,101323.53
2023-05-23T18:10:26.738Z,101325.69
2023-05-23T18:12:54.630Z,101331.63
2023-05-23T18:15:24.162Z,101318.94
2023-05-23T18:17:55.398Z,101323.91
2023-05-23T18:20:23.357Z,101329.88
2023-05-23T18:22:52.731Z,101287.97
2023-05-23T18:25:22.974Z,101329.50
2023-05-23T18:27:52.196Z,101328.28
2023-05-23T18:30:19.969Z,101329.06
2023-05-23T18:32:47.946Z,101333.72
2023-05-23T18:35:15.921Z,101330.59
2023-05-23T18:37:44.104Z,101318.63
2023-05-23T18:40:12.483Z,101344.78
2023-05-23T18:42:40.307Z,101348.59
2023-05-23T18:45:11.103Z,101346.91
2023-05-23T18:47:38.974Z,101339.81
2023-05-23T18:50:07.809Z,101349.09
2023-05-23T18:52:37.218Z,101338.44
2023-05-23T18:55:05.746Z,101316.16
2023-05-23T18:57:33.554Z,101351.38
2023-05-23T19:00:01.509Z,101351.66
2023-05-23T19:02:31.099Z,101365.47
2023-05-23T19:04:58.993Z,101360.66
2023-05-23T19:07:27.241Z,101362.28
2023-05-23T19:09:55.068Z,101377.13
2023-05-23T19:12:28.232Z,101366.06
2023-05-23T19:14:58.655Z,101380.53
2023-05-23T19:17:26.527Z,101380.53
2023-05-23T19:19:56.226Z,101390.84
2023-05-23T19:22:24.358Z,101389.44
2023-05-23T19:24:52.176Z,101392.31
2023-05-23T19:27:20.729Z,101396.69
2023-05-23T19:29:50.168Z,101395.28
2023-05-23T19:32:18.418Z,101396.56
2023-05-23T19:34:50.822Z,101406.38
2023-05-23T19:37:20.019Z,101394.47
2023-05-23T19:39:47.885Z,101401.09
2023-05-23T19:42:16.138Z,101395.78
2023-05-23T19:44:44.713Z,101389.38
2023-05-23T19:47:12.753Z,101400.00
2023-05-23T19:49:41.519Z,101401.44
2023-05-23T19:52:09.347Z,101390.50
2023-05-23T19:54:38.693Z,101402.84
2023-05-23T19:57:07.261Z,101401.47
2023-05-23T19:59:35.186Z,101408.75
2023-05-23T20:02:03.074Z,101409.03
2023-05-23T20:04:31.444Z,101418.19
2023-05-23T20:06:59.753Z,101420.69
2023-05-23T20:09:27.700Z,101431.19
2023-05-23T20:11:56.825Z,101422.50
2023-05-23T20:14:24.550Z,101427.13
2023-05-23T20:16:53.741Z,101432.91
2023-05-23T20:19:21.674Z,101435.72
2023-05-23T20:21:49.564Z,101446.91
2023-05-23T20:24:20.412Z,101439.91
2023-05-23T20:26:48.289Z,101420.31
2023-05-23T20:29:17.487Z,101453.97
2023-05-23T20:31:46.418Z,101446.53
2023-05-23T20:34:14.332Z,101456.19
2023-05-23T20:36:42.191Z,101458.72
2023-05-23T20:39:10.508Z,101446.09
2023-05-23T20:41:41.549Z,101439.38
2023-05-23T20:44:12.417Z,101469.38
2023-05-23T20:46:41.646Z,101472.19
2023-05-23T20:49:09.437Z,101472.88
2023-05-23T20:51:41.664Z,101432.94
2023-05-23T20:54:13.547Z,101478.06
2023-05-23T20:56:43.913Z,101475.66
2023-05-23T20:59:16.408Z,101474.69
2023-05-23T21:01:47.471Z,101476.25
2023-05-23T21:04:18.032Z,101477.50
2023-05-23T21:06:46.679Z,101475.25
2023-05-23T21:09:17.522Z,101475.09
2023-05-23T21:11:46.809Z,101480.28
2023-05-23T21:14:15.030Z,101479.97
2023-05-23T21:16:42.966Z,101483.94
2023-05-23T21:19:21.610Z,101480.28
2023-05-23T21:21:50.684Z,101484.19
2023-05-23T21:24:21.204Z,101485.59
2023-05-23T21:26:51.534Z,101477.91
2023-05-23T21:29:19.469Z,101476.34
2023-05-23T21:31:47.360Z,101490.91
2023-05-23T21:34:24.307Z,101489.34
2023-05-23T21:36:53.909Z,101474.22
2023-05-23T21:39:24.481Z,101488.09
2023-05-23T21:41:53.793Z,101487.66
2023-05-23T21:44:21.606Z,101490.44
2023-05-23T21:46:53.548Z,101493.66
2023-05-23T21:49:22.741Z,101491.72
2023-05-23T21:51:50.925Z,101493.06
2023-05-23T21:54:19.334Z,101488.00
2023-05-23T21:56:47.116Z,101493.84
2023-05-23T21:59:15.200Z,101492.31
2023-05-23T22:01:43.090Z,101493.56
2023-05-23T22:04:10.939Z,101494.00
2023-05-23T22:06:40.297Z,101497.47
2023-05-23T22:09:11.426Z,101487.09
2023-05-23T22:11:39.241Z,101481.78
2023-05-23T22:14:07.276Z,101494.66
2023-05-23T22:16:38.918Z,101498.00
2023-05-23T22:19:07.037Z,101487.94
2023-05-23T22:21:35.099Z,101461.16
2023-05-23T22:24:04.748Z,101484.53
2023-05-23T22:26:32.628Z,101480.91
2023-05-23T22:29:00.476Z,101475.97
2023-05-23T22:31:29.040Z,101484.78
2023-05-23T22:33:57.464Z,101488.97
2023-05-23T22:36:25.616Z,101485.59
2023-05-23T22:38:53.429Z,101486.84
2023-05-23T22:41:23.776Z,101482.06
2023-05-23T22:43:52.112Z,101488.91
2023-05-23T22:46:19.985Z,101498.69
2023-05-23T22:48:47.747Z,101495.06
2023-05-23T22:51:16.421Z,101481.88
2023-05-23T22:53:44.273Z,101494.91
2023-05-23T22:56:12.111Z,101491.41
2023-05-23T22:58:41.375Z,101483.09
2023-05-23T23:01:12.117Z,101485.31
2023-05-23T23:03:40.016Z,101489.22
2023-05-23T23:06:09.453Z,101493.94
2023-05-23T23:08:39.400Z,101486.22
2023-05-23T23:11:07.245Z,101487.59
2023-05-23T23:13:35.129Z,101489.53
2023-05-23T23:16:04.358Z,101489.78
2023-05-23T23:18:32.146Z,101490.03
2023-05-23T23:20:59.929Z,101494.78
2023-05-23T23:23:27.731Z,101488.75
2023-05-23T23:25:56.143Z,101483.16
2023-05-23T23:28:23.967Z,101490.38
2023-05-23T23:30:51.786Z,101499.25
2023-05-23T23:33:21.065Z,101485.94
2023-05-23T23:35:51.589Z,101503.28
2023-05-23T23:38:21.651Z,101507.03
2023-05-23T23:40:50.588Z,101501.97
2023-05-23T23:43:18.420Z,101500.16
2023-05-23T23:45:46.209Z,101501.78
2023-05-23T23:48:15.037Z,101495.47
2023-05-23T23:50:44.396Z,101496.47
2023-05-23T23:53:12.562Z,101496.72
2023-05-23T23:55:40.353Z,101501.19
2023-05-23T23:58:08.224Z,101477.00
